sensor_id;sensor_type;location;lat;lon;timestamp;P1;durP1;ratioP1;P2;durP2;ratioP2
66603;SDS011;53460;39.612;8.822;2023-09-19T00:00:43;33.63;;;6.40;;
66603;SDS011;53460;39.612;8.822;2023-09-19T00:03:09;31.45;;;6.50;;
66603;SDS011;53460;39.612;8.822;2023-09-19T00:05:35;28.63;;;5.50;;
66603;SDS011;53460;39.612;8.822;2023-09-19T00:08:01;28.33;;;6.40;;
66603;SDS011;53460;39.612;8.822;2023-09-19T00:10:30;20.50;;;5.07;;
66603;SDS011;53460;39.612;8.822;2023-09-19T00:12:56;31.80;;;5.88;;
66603;SDS011;53460;39.612;8.822;2023-09-19T00:15:22;31.08;;;5.97;;
66603;SDS011;53460;39.612;8.822;2023-09-19T00:17:48;23.73;;;5.53;;
66603;SDS011;53460;39.612;8.822;2023-09-19T00:20:14;39.47;;;6.15;;
66603;SDS011;53460;39.612;8.822;2023-09-19T00:22:42;29.17;;;5.65;;
66603;SDS011;53460;39.612;8.822;2023-09-19T00:25:10;27.40;;;5.55;;
66603;SDS011;53460;39.612;8.822;2023-09-19T00:27:37;30.77;;;5.97;;
66603;SDS011;53460;39.612;8.822;2023-09-19T00:30:07;23.90;;;5.18;;
66603;SDS011;53460;39.612;8.822;2023-09-19T00:32:34;24.42;;;5.90;;
66603;SDS011;53460;39.612;8.822;2023-09-19T00:35:00;27.50;;;5.68;;
66603;SDS011;53460;39.612;8.822;2023-09-19T00:37:26;29.73;;;6.72;;
66603;SDS011;53460;39.612;8.822;2023-09-19T00:39:51;30.73;;;6.60;;
66603;SDS011;53460;39.612;8.822;2023-09-19T00:42:18;28.63;;;6.65;;
66603;SDS011;53460;39.612;8.822;2023-09-19T00:44:44;20.85;;;5.65;;
66603;SDS011;53460;39.612;8.822;2023-09-19T00:47:10;20.20;;;5.88;;
66603;SDS011;53460;39.612;8.822;2023-09-19T00:49:40;27.20;;;6.40;;
66603;SDS011;53460;39.612;8.822;2023-09-19T00:52:06;28.83;;;7.47;;
66603;SDS011;53460;39.612;8.822;2023-09-19T00:54:32;27.88;;;6.95;;
66603;SDS011;53460;39.612;8.822;2023-09-19T00:56:59;25.50;;;5.78;;
66603;SDS011;53460;39.612;8.822;2023-09-19T00:59:24;22.08;;;6.22;;
66603;SDS011;53460;39.612;8.822;2023-09-19T01:01:50;30.65;;;6.40;;
66603;SDS011;53460;39.612;8.822;2023-09-19T01:04:19;27.45;;;6.28;;
66603;SDS011;53460;39.612;8.822;2023-09-19T01:06:45;25.23;;;5.30;;
66603;SDS011;53460;39.612;8.822;2023-09-19T01:09:11;22.48;;;4.85;;
66603;SDS011;53460;39.612;8.822;2023-09-19T01:11:43;32.85;;;5.85;;
66603;SDS011;53460;39.612;8.822;2023-09-19T01:14:22;24.20;;;5.22;;
66603;SDS011;53460;39.612;8.822;2023-09-19T01:16:57;28.10;;;5.88;;
66603;SDS011;53460;39.612;8.822;2023-09-19T01:22:17;32.38;;;6.88;;
66603;SDS011;53460;39.612;8.822;2023-09-19T01:27:25;30.40;;;6.80;;
66603;SDS011;53460;39.612;8.822;2023-09-19T01:30:05;30.83;;;6.00;;
66603;SDS011;53460;39.612;8.822;2023-09-19T01:32:32;27.38;;;5.78;;
66603;SDS011;53460;39.612;8.822;2023-09-19T01:34:58;22.10;;;5.50;;
66603;SDS011;53460;39.612;8.822;2023-09-19T01:37:30;28.70;;;5.65;;
66603;SDS011;53460;39.612;8.822;2023-09-19T01:40:04;30.52;;;6.05;;
66603;SDS011;53460;39.612;8.822;2023-09-19T01:42:44;25.10;;;6.40;;
66603;SDS011;53460;39.612;8.822;2023-09-19T01:45:18;20.58;;;5.68;;
66603;SDS011;53460;39.612;8.822;2023-09-19T01:47:56;27.52;;;5.05;;
66603;SDS011;53460;39.612;8.822;2023-09-19T01:50:38;21.40;;;5.07;;
66603;SDS011;53460;39.612;8.822;2023-09-19T01:53:15;25.55;;;5.53;;
66603;SDS011;53460;39.612;8.822;2023-09-19T01:55:46;19.23;;;6.18;;
66603;SDS011;53460;39.612;8.822;2023-09-19T02:00:42;24.73;;;4.65;;
66603;SDS011;53460;39.612;8.822;2023-09-19T02:03:09;25.65;;;6.53;;
66603;SDS011;53460;39.612;8.822;2023-09-19T02:05:36;22.10;;;4.75;;
66603;SDS011;53460;39.612;8.822;2023-09-19T02:08:03;23.23;;;5.38;;
66603;SDS011;53460;39.612;8.822;2023-09-19T02:10:29;18.52;;;4.53;;
66603;SDS011;53460;39.612;8.822;2023-09-19T02:12:54;25.80;;;5.65;;
66603;SDS011;53460;39.612;8.822;2023-09-19T02:15:20;26.85;;;5.50;;
66603;SDS011;53460;39.612;8.822;2023-09-19T02:17:45;24.58;;;5.40;;
66603;SDS011;53460;39.612;8.822;2023-09-19T02:20:11;21.92;;;5.03;;
66603;SDS011;53460;39.612;8.822;2023-09-19T02:22:40;29.45;;;6.47;;
66603;SDS011;53460;39.612;8.822;2023-09-19T02:25:06;21.65;;;5.00;;
66603;SDS011;53460;39.612;8.822;2023-09-19T02:27:32;26.75;;;6.50;;
66603;SDS011;53460;39.612;8.822;2023-09-19T02:29:58;23.10;;;5.05;;
66603;SDS011;53460;39.612;8.822;2023-09-19T02:32:23;29.48;;;5.93;;
66603;SDS011;53460;39.612;8.822;2023-09-19T02:34:48;21.33;;;6.25;;
66603;SDS011;53460;39.612;8.822;2023-09-19T02:37:17;23.27;;;4.97;;
66603;SDS011;53460;39.612;8.822;2023-09-19T02:39:44;23.05;;;5.72;;
66603;SDS011;53460;39.612;8.822;2023-09-19T02:42:11;28.20;;;6.10;;
66603;SDS011;53460;39.612;8.822;2023-09-19T02:44:36;30.40;;;5.80;;
66603;SDS011;53460;39.612;8.822;2023-09-19T02:47:03;18.83;;;5.55;;
66603;SDS011;53460;39.612;8.822;2023-09-19T02:49:29;31.52;;;5.35;;
66603;SDS011;53460;39.612;8.822;2023-09-19T02:51:54;21.90;;;5.40;;
66603;SDS011;53460;39.612;8.822;2023-09-19T02:54:20;18.50;;;4.82;;
66603;SDS011;53460;39.612;8.822;2023-09-19T02:56:46;26.20;;;5.43;;
66603;SDS011;53460;39.612;8.822;2023-09-19T02:59:12;21.73;;;4.90;;
66603;SDS011;53460;39.612;8.822;2023-09-19T03:01:38;28.75;;;5.57;;
66603;SDS011;53460;39.612;8.822;2023-09-19T03:04:04;33.83;;;5.03;;
66603;SDS011;53460;39.612;8.822;2023-09-19T03:06:32;23.23;;;6.45;;
66603;SDS011;53460;39.612;8.822;2023-09-19T03:08:58;26.10;;;5.07;;
66603;SDS011;53460;39.612;8.822;2023-09-19T03:11:25;26.83;;;4.57;;
66603;SDS011;53460;39.612;8.822;2023-09-19T03:13:55;22.40;;;6.03;;
66603;SDS011;53460;39.612;8.822;2023-09-19T03:16:21;26.08;;;5.60;;
66603;SDS011;53460;39.612;8.822;2023-09-19T03:18:49;19.95;;;5.72;;
66603;SDS011;53460;39.612;8.822;2023-09-19T03:21:15;24.63;;;4.80;;
66603;SDS011;53460;39.612;8.822;2023-09-19T03:23:43;28.40;;;5.43;;
66603;SDS011;53460;39.612;8.822;2023-09-19T03:26:15;30.60;;;5.50;;
66603;SDS011;53460;39.612;8.822;2023-09-19T03:28:41;19.88;;;4.88;;
66603;SDS011;53460;39.612;8.822;2023-09-19T03:31:09;19.80;;;5.57;;
66603;SDS011;53460;39.612;8.822;2023-09-19T03:33:35;21.92;;;5.07;;
66603;SDS011;53460;39.612;8.822;2023-09-19T03:36:02;22.33;;;5.10;;
66603;SDS011;53460;39.612;8.822;2023-09-19T03:38:30;33.42;;;6.72;;
66603;SDS011;53460;39.612;8.822;2023-09-19T03:40:55;24.45;;;4.88;;
66603;SDS011;53460;39.612;8.822;2023-09-19T03:43:21;24.17;;;4.80;;
66603;SDS011;53460;39.612;8.822;2023-09-19T03:45:46;23.17;;;5.28;;
66603;SDS011;53460;39.612;8.822;2023-09-19T03:48:13;24.45;;;5.13;;
66603;SDS011;53460;39.612;8.822;2023-09-19T03:50:39;27.35;;;5.30;;
66603;SDS011;53460;39.612;8.822;2023-09-19T03:53:04;26.13;;;5.40;;
66603;SDS011;53460;39.612;8.822;2023-09-19T03:55:32;25.50;;;6.03;;
66603;SDS011;53460;39.612;8.822;2023-09-19T03:57:57;21.23;;;5.25;;
66603;SDS011;53460;39.612;8.822;2023-09-19T04:00:23;28.45;;;5.88;;
66603;SDS011;53460;39.612;8.822;2023-09-19T04:02:52;16.02;;;4.43;;
66603;SDS011;53460;39.612;8.822;2023-09-19T04:05:18;19.67;;;4.88;;
66603;SDS011;53460;39.612;8.822;2023-09-19T04:07:45;27.40;;;5.25;;
66603;SDS011;53460;39.612;8.822;2023-09-19T04:10:10;24.15;;;4.80;;
66603;SDS011;53460;39.612;8.822;2023-09-19T04:12:40;22.83;;;5.15;;
66603;SDS011;53460;39.612;8.822;2023-09-19T04:15:05;23.20;;;4.55;;
66603;SDS011;53460;39.612;8.822;2023-09-19T04:17:31;21.10;;;4.95;;
66603;SDS011;53460;39.612;8.822;2023-09-19T04:20:00;21.05;;;4.72;;
66603;SDS011;53460;39.612;8.822;2023-09-19T04:22:25;21.67;;;4.90;;
66603;SDS011;53460;39.612;8.822;2023-09-19T04:24:51;16.45;;;4.22;;
66603;SDS011;53460;39.612;8.822;2023-09-19T04:27:16;21.50;;;5.03;;
66603;SDS011;53460;39.612;8.822;2023-09-19T04:29:44;25.55;;;4.72;;
66603;SDS011;53460;39.612;8.822;2023-09-19T04:32:09;19.95;;;5.28;;
66603;SDS011;53460;39.612;8.822;2023-09-19T04:34:35;23.63;;;5.63;;
66603;SDS011;53460;39.612;8.822;2023-09-19T04:37:00;15.73;;;4.10;;
66603;SDS011;53460;39.612;8.822;2023-09-19T04:39:27;28.98;;;5.82;;
66603;SDS011;53460;39.612;8.822;2023-09-19T04:41:52;22.80;;;4.78;;
66603;SDS011;53460;39.612;8.822;2023-09-19T04:44:18;16.77;;;4.60;;
66603;SDS011;53460;39.612;8.822;2023-09-19T04:46:44;21.65;;;4.95;;
66603;SDS011;53460;39.612;8.822;2023-09-19T04:49:09;30.02;;;5.22;;
66603;SDS011;53460;39.612;8.822;2023-09-19T04:51:35;29.85;;;5.65;;
66603;SDS011;53460;39.612;8.822;2023-09-19T04:54:01;18.70;;;4.53;;
66603;SDS011;53460;39.612;8.822;2023-09-19T04:56:28;30.30;;;5.13;;
66603;SDS011;53460;39.612;8.822;2023-09-19T04:58:57;21.70;;;4.30;;
66603;SDS011;53460;39.612;8.822;2023-09-19T05:01:23;23.92;;;5.20;;
66603;SDS011;53460;39.612;8.822;2023-09-19T05:03:49;21.60;;;5.07;;
66603;SDS011;53460;39.612;8.822;2023-09-19T05:06:20;21.65;;;5.00;;
66603;SDS011;53460;39.612;8.822;2023-09-19T05:08:49;20.40;;;6.15;;
66603;SDS011;53460;39.612;8.822;2023-09-19T05:11:19;23.30;;;6.60;;
66603;SDS011;53460;39.612;8.822;2023-09-19T05:13:45;19.25;;;4.65;;
66603;SDS011;53460;39.612;8.822;2023-09-19T05:16:10;29.52;;;5.88;;
66603;SDS011;53460;39.612;8.822;2023-09-19T05:18:36;17.38;;;4.43;;
66603;SDS011;53460;39.612;8.822;2023-09-19T05:21:02;21.50;;;5.00;;
66603;SDS011;53460;39.612;8.822;2023-09-19T05:23:27;20.63;;;4.80;;
66603;SDS011;53460;39.612;8.822;2023-09-19T05:25:53;16.30;;;4.93;;
66603;SDS011;53460;39.612;8.822;2023-09-19T05:28:19;23.55;;;5.68;;
66603;SDS011;53460;39.612;8.822;2023-09-19T05:30:45;25.27;;;5.03;;
66603;SDS011;53460;39.612;8.822;2023-09-19T05:33:11;29.45;;;5.38;;
66603;SDS011;53460;39.612;8.822;2023-09-19T05:35:37;30.00;;;6.22;;
66603;SDS011;53460;39.612;8.822;2023-09-19T05:38:04;26.05;;;5.05;;
66603;SDS011;53460;39.612;8.822;2023-09-19T05:40:34;23.45;;;5.10;;
66603;SDS011;53460;39.612;8.822;2023-09-19T05:43:00;22.00;;;5.15;;
66603;SDS011;53460;39.612;8.822;2023-09-19T05:45:25;27.38;;;5.80;;
66603;SDS011;53460;39.612;8.822;2023-09-19T05:47:52;30.38;;;5.70;;
66603;SDS011;53460;39.612;8.822;2023-09-19T05:50:21;23.30;;;4.95;;
66603;SDS011;53460;39.612;8.822;2023-09-19T05:52:52;19.27;;;4.10;;
66603;SDS011;53460;39.612;8.822;2023-09-19T05:55:18;19.15;;;5.35;;
66603;SDS011;53460;39.612;8.822;2023-09-19T05:57:43;22.58;;;5.47;;
66603;SDS011;53460;39.612;8.822;2023-09-19T06:00:15;18.55;;;4.78;;
66603;SDS011;53460;39.612;8.822;2023-09-19T06:02:43;21.50;;;5.50;;
66603;SDS011;53460;39.612;8.822;2023-09-19T06:05:10;20.48;;;4.72;;
66603;SDS011;53460;39.612;8.822;2023-09-19T06:07:38;24.35;;;5.05;;
66603;SDS011;53460;39.612;8.822;2023-09-19T06:10:04;24.50;;;5.38;;
66603;SDS011;53460;39.612;8.822;2023-09-19T06:12:33;28.50;;;5.28;;
66603;SDS011;53460;39.612;8.822;2023-09-19T06:15:03;19.58;;;4.53;;
66603;SDS011;53460;39.612;8.822;2023-09-19T06:17:30;22.30;;;5.07;;
66603;SDS011;53460;39.612;8.822;2023-09-19T06:19:56;22.52;;;4.47;;
66603;SDS011;53460;39.612;8.822;2023-09-19T06:22:21;16.67;;;4.88;;
66603;SDS011;53460;39.612;8.822;2023-09-19T06:24:47;25.65;;;4.88;;
66603;SDS011;53460;39.612;8.822;2023-09-19T06:27:13;19.35;;;4.85;;
66603;SDS011;53460;39.612;8.822;2023-09-19T06:29:39;22.25;;;5.72;;
66603;SDS011;53460;39.612;8.822;2023-09-19T06:32:07;19.65;;;4.47;;
66603;SDS011;53460;39.612;8.822;2023-09-19T06:34:34;22.70;;;4.60;;
66603;SDS011;53460;39.612;8.822;2023-09-19T06:36:59;25.98;;;4.72;;
66603;SDS011;53460;39.612;8.822;2023-09-19T06:39:25;20.45;;;5.22;;
66603;SDS011;53460;39.612;8.822;2023-09-19T06:41:51;18.70;;;4.80;;
66603;SDS011;53460;39.612;8.822;2023-09-19T06:44:18;22.63;;;4.22;;
66603;SDS011;53460;39.612;8.822;2023-09-19T06:46:46;19.40;;;4.57;;
66603;SDS011;53460;39.612;8.822;2023-09-19T06:49:15;21.08;;;4.30;;
66603;SDS011;53460;39.612;8.822;2023-09-19T06:51:40;23.73;;;5.15;;
66603;SDS011;53460;39.612;8.822;2023-09-19T06:54:08;16.40;;;3.70;;
66603;SDS011;53460;39.612;8.822;2023-09-19T06:56:34;18.65;;;4.57;;
66603;SDS011;53460;39.612;8.822;2023-09-19T06:58:59;16.05;;;4.65;;
66603;SDS011;53460;39.612;8.822;2023-09-19T07:01:25;16.67;;;3.95;;
66603;SDS011;53460;39.612;8.822;2023-09-19T07:03:51;19.48;;;4.30;;
66603;SDS011;53460;39.612;8.822;2023-09-19T07:06:18;16.80;;;4.13;;
66603;SDS011;53460;39.612;8.822;2023-09-19T07:08:43;16.70;;;3.90;;
66603;SDS011;53460;39.612;8.822;2023-09-19T07:11:10;19.73;;;4.15;;
66603;SDS011;53460;39.612;8.822;2023-09-19T07:13:37;21.38;;;5.10;;
66603;SDS011;53460;39.612;8.822;2023-09-19T07:16:03;15.98;;;4.07;;
66603;SDS011;53460;39.612;8.822;2023-09-19T07:18:29;14.82;;;3.95;;
66603;SDS011;53460;39.612;8.822;2023-09-19T07:20:58;21.73;;;4.05;;
66603;SDS011;53460;39.612;8.822;2023-09-19T07:23:30;16.98;;;4.95;;
66603;SDS011;53460;39.612;8.822;2023-09-19T07:26:00;17.45;;;4.38;;
66603;SDS011;53460;39.612;8.822;2023-09-19T07:28:26;15.20;;;3.97;;
66603;SDS011;53460;39.612;8.822;2023-09-19T07:30:51;17.65;;;4.18;;
66603;SDS011;53460;39.612;8.822;2023-09-19T07:33:17;22.35;;;4.22;;
66603;SDS011;53460;39.612;8.822;2023-09-19T07:35:46;20.10;;;4.70;;
66603;SDS011;53460;39.612;8.822;2023-09-19T07:38:12;18.83;;;3.75;;
66603;SDS011;53460;39.612;8.822;2023-09-19T07:40:38;19.52;;;4.30;;
66603;SDS011;53460;39.612;8.822;2023-09-19T07:43:03;19.30;;;3.47;;
66603;SDS011;53460;39.612;8.822;2023-09-19T07:45:32;13.25;;;3.88;;
66603;SDS011;53460;39.612;8.822;2023-09-19T07:47:58;18.60;;;3.63;;
66603;SDS011;53460;39.612;8.822;2023-09-19T07:50:24;18.92;;;3.80;;
66603;SDS011;53460;39.612;8.822;2023-09-19T07:52:51;16.33;;;3.75;;
66603;SDS011;53460;39.612;8.822;2023-09-19T07:55:18;20.75;;;4.03;;
66603;SDS011;53460;39.612;8.822;2023-09-19T07:57:45;19.83;;;3.90;;
66603;SDS011;53460;39.612;8.822;2023-09-19T08:00:10;16.58;;;3.97;;
66603;SDS011;53460;39.612;8.822;2023-09-19T08:02:37;15.10;;;3.65;;
66603;SDS011;53460;39.612;8.822;2023-09-19T08:05:09;16.48;;;4.78;;
66603;SDS011;53460;39.612;8.822;2023-09-19T08:07:38;10.10;;;3.42;;
66603;SDS011;53460;39.612;8.822;2023-09-19T08:10:05;17.98;;;3.80;;
66603;SDS011;53460;39.612;8.822;2023-09-19T08:12:36;15.40;;;3.38;;
66603;SDS011;53460;39.612;8.822;2023-09-19T08:15:02;15.70;;;4.15;;
66603;SDS011;53460;39.612;8.822;2023-09-19T08:17:28;19.25;;;4.38;;
66603;SDS011;53460;39.612;8.822;2023-09-19T08:19:53;23.25;;;4.53;;
66603;SDS011;53460;39.612;8.822;2023-09-19T08:22:22;19.08;;;4.18;;
66603;SDS011;53460;39.612;8.822;2023-09-19T08:24:48;18.02;;;4.55;;
66603;SDS011;53460;39.612;8.822;2023-09-19T08:27:14;27.42;;;3.50;;
66603;SDS011;53460;39.612;8.822;2023-09-19T08:29:43;15.50;;;3.95;;
66603;SDS011;53460;39.612;8.822;2023-09-19T08:32:09;15.60;;;3.67;;
66603;SDS011;53460;39.612;8.822;2023-09-19T08:34:35;12.50;;;3.53;;
66603;SDS011;53460;39.612;8.822;2023-09-19T08:37:00;19.60;;;4.85;;
66603;SDS011;53460;39.612;8.822;2023-09-19T08:39:26;21.02;;;4.82;;
66603;SDS011;53460;39.612;8.822;2023-09-19T08:41:58;14.73;;;3.50;;
66603;SDS011;53460;39.612;8.822;2023-09-19T08:44:24;19.13;;;4.75;;
66603;SDS011;53460;39.612;8.822;2023-09-19T08:46:50;15.98;;;3.47;;
66603;SDS011;53460;39.612;8.822;2023-09-19T08:49:24;14.90;;;3.60;;
66603;SDS011;53460;39.612;8.822;2023-09-19T08:52:00;17.23;;;3.72;;
66603;SDS011;53460;39.612;8.822;2023-09-19T08:54:27;24.73;;;4.00;;
66603;SDS011;53460;39.612;8.822;2023-09-19T08:56:54;18.80;;;3.85;;
66603;SDS011;53460;39.612;8.822;2023-09-19T08:59:22;17.75;;;4.53;;
66603;SDS011;53460;39.612;8.822;2023-09-19T09:01:54;19.25;;;4.43;;
66603;SDS011;53460;39.612;8.822;2023-09-19T09:04:20;20.00;;;3.83;;
66603;SDS011;53460;39.612;8.822;2023-09-19T09:06:47;16.55;;;3.50;;
66603;SDS011;53460;39.612;8.822;2023-09-19T09:09:18;22.65;;;4.07;;
66603;SDS011;53460;39.612;8.822;2023-09-19T09:11:43;16.08;;;3.65;;
66603;SDS011;53460;39.612;8.822;2023-09-19T09:14:09;21.90;;;4.43;;
66603;SDS011;53460;39.612;8.822;2023-09-19T09:16:34;14.73;;;3.63;;
66603;SDS011;53460;39.612;8.822;2023-09-19T09:19:00;17.55;;;5.00;;
66603;SDS011;53460;39.612;8.822;2023-09-19T09:21:26;17.50;;;3.33;;
66603;SDS011;53460;39.612;8.822;2023-09-19T09:23:52;14.98;;;3.85;;
66603;SDS011;53460;39.612;8.822;2023-09-19T09:29:02;12.65;;;3.38;;
66603;SDS011;53460;39.612;8.822;2023-09-19T09:31:27;13.55;;;2.95;;
66603;SDS011;53460;39.612;8.822;2023-09-19T09:33:54;16.40;;;3.35;;
66603;SDS011;53460;39.612;8.822;2023-09-19T09:36:41;22.38;;;3.42;;
66603;SDS011;53460;39.612;8.822;2023-09-19T09:39:09;15.52;;;3.35;;
66603;SDS011;53460;39.612;8.822;2023-09-19T09:41:50;16.30;;;3.42;;
66603;SDS011;53460;39.612;8.822;2023-09-19T09:44:16;12.63;;;3.58;;
66603;SDS011;53460;39.612;8.822;2023-09-19T09:46:46;16.05;;;3.63;;
66603;SDS011;53460;39.612;8.822;2023-09-19T09:49:15;33.78;;;4.55;;
66603;SDS011;53460;39.612;8.822;2023-09-19T09:54:28;37.38;;;5.20;;
66603;SDS011;53460;39.612;8.822;2023-09-19T09:56:59;29.35;;;3.80;;
66603;SDS011;53460;39.612;8.822;2023-09-19T09:59:57;32.88;;;4.22;;
66603;SDS011;53460;39.612;8.822;2023-09-19T10:02:43;26.00;;;4.15;;
66603;SDS011;53460;39.612;8.822;2023-09-19T10:05:20;21.75;;;4.35;;
66603;SDS011;53460;39.612;8.822;2023-09-19T10:07:52;33.40;;;3.95;;
66603;SDS011;53460;39.612;8.822;2023-09-19T10:13:12;15.45;;;3.88;;
66603;SDS011;53460;39.612;8.822;2023-09-19T10:15:39;16.85;;;3.30;;
66603;SDS011;53460;39.612;8.822;2023-09-19T10:18:10;19.98;;;4.18;;
66603;SDS011;53460;39.612;8.822;2023-09-19T10:20:36;17.65;;;3.80;;
66603;SDS011;53460;39.612;8.822;2023-09-19T10:23:05;14.88;;;4.20;;
66603;SDS011;53460;39.612;8.822;2023-09-19T10:25:35;23.87;;;5.20;;
66603;SDS011;53460;39.612;8.822;2023-09-19T10:28:02;21.35;;;3.42;;
66603;SDS011;53460;39.612;8.822;2023-09-19T10:30:36;19.25;;;4.55;;
66603;SDS011;53460;39.612;8.822;2023-09-19T10:33:04;13.73;;;3.15;;
66603;SDS011;53460;39.612;8.822;2023-09-19T10:35:33;21.65;;;4.97;;
66603;SDS011;53460;39.612;8.822;2023-09-19T10:37:59;17.02;;;4.32;;
66603;SDS011;53460;39.612;8.822;2023-09-19T10:40:26;22.88;;;5.22;;
66603;SDS011;53460;39.612;8.822;2023-09-19T10:43:02;15.90;;;4.30;;
66603;SDS011;53460;39.612;8.822;2023-09-19T10:45:35;20.60;;;5.15;;
66603;SDS011;53460;39.612;8.822;2023-09-19T10:48:01;19.35;;;5.07;;
66603;SDS011;53460;39.612;8.822;2023-09-19T10:53:14;14.82;;;3.42;;
66603;SDS011;53460;39.612;8.822;2023-09-19T10:55:40;16.60;;;4.70;;
66603;SDS011;53460;39.612;8.822;2023-09-19T10:58:06;18.63;;;4.07;;
66603;SDS011;53460;39.612;8.822;2023-09-19T11:00:58;14.45;;;3.80;;
66603;SDS011;53460;39.612;8.822;2023-09-19T11:03:42;14.48;;;4.10;;
66603;SDS011;53460;39.612;8.822;2023-09-19T11:06:11;16.92;;;3.90;;
66603;SDS011;53460;39.612;8.822;2023-09-19T11:22:18;19.20;;;4.03;;
66603;SDS011;53460;39.612;8.822;2023-09-19T11:24:44;15.13;;;4.43;;
66603;SDS011;53460;39.612;8.822;2023-09-19T11:27:11;18.40;;;3.78;;
66603;SDS011;53460;39.612;8.822;2023-09-19T11:29:39;19.30;;;3.97;;
66603;SDS011;53460;39.612;8.822;2023-09-19T11:32:05;19.10;;;4.03;;
66603;SDS011;53460;39.612;8.822;2023-09-19T11:39:34;19.52;;;3.95;;
66603;SDS011;53460;39.612;8.822;2023-09-19T11:42:00;16.92;;;3.80;;
66603;SDS011;53460;39.612;8.822;2023-09-19T11:49:26;17.00;;;4.15;;
66603;SDS011;53460;39.612;8.822;2023-09-19T11:51:55;21.42;;;4.70;;
66603;SDS011;53460;39.612;8.822;2023-09-19T11:54:21;14.27;;;4.53;;
66603;SDS011;53460;39.612;8.822;2023-09-19T11:56:57;13.02;;;4.72;;
66603;SDS011;53460;39.612;8.822;2023-09-19T11:59:23;18.42;;;4.50;;
66603;SDS011;53460;39.612;8.822;2023-09-19T12:01:53;21.90;;;5.20;;
66603;SDS011;53460;39.612;8.822;2023-09-19T12:04:44;18.40;;;5.40;;
66603;SDS011;53460;39.612;8.822;2023-09-19T12:07:11;20.90;;;5.00;;
66603;SDS011;53460;39.612;8.822;2023-09-19T12:09:41;20.85;;;4.78;;
66603;SDS011;53460;39.612;8.822;2023-09-19T12:12:09;22.75;;;4.65;;
66603;SDS011;53460;39.612;8.822;2023-09-19T12:14:37;18.42;;;4.40;;
66603;SDS011;53460;39.612;8.822;2023-09-19T12:17:04;21.38;;;4.75;;
66603;SDS011;53460;39.612;8.822;2023-09-19T12:19:29;17.75;;;3.88;;
66603;SDS011;53460;39.612;8.822;2023-09-19T12:21:59;23.05;;;4.85;;
66603;SDS011;53460;39.612;8.822;2023-09-19T12:24:25;21.80;;;4.38;;
66603;SDS011;53460;39.612;8.822;2023-09-19T12:26:51;17.40;;;4.65;;
66603;SDS011;53460;39.612;8.822;2023-09-19T12:29:20;20.77;;;3.97;;
66603;SDS011;53460;39.612;8.822;2023-09-19T12:31:49;21.90;;;4.93;;
66603;SDS011;53460;39.612;8.822;2023-09-19T12:34:26;23.35;;;4.38;;
66603;SDS011;53460;39.612;8.822;2023-09-19T12:39:40;18.95;;;3.78;;
66603;SDS011;53460;39.612;8.822;2023-09-19T12:42:09;15.02;;;3.60;;
66603;SDS011;53460;39.612;8.822;2023-09-19T12:44:38;15.07;;;3.75;;
66603;SDS011;53460;39.612;8.822;2023-09-19T12:47:16;19.45;;;4.47;;
66603;SDS011;53460;39.612;8.822;2023-09-19T12:52:33;18.38;;;3.90;;
66603;SDS011;53460;39.612;8.822;2023-09-19T12:54:59;13.77;;;3.00;;
66603;SDS011;53460;39.612;8.822;2023-09-19T12:57:28;14.25;;;3.45;;
66603;SDS011;53460;39.612;8.822;2023-09-19T12:59:57;15.18;;;3.92;;
66603;SDS011;53460;39.612;8.822;2023-09-19T13:02:22;14.27;;;3.30;;
66603;SDS011;53460;39.612;8.822;2023-09-19T13:04:55;14.55;;;2.70;;
66603;SDS011;53460;39.612;8.822;2023-09-19T13:07:41;15.63;;;3.47;;
66603;SDS011;53460;39.612;8.822;2023-09-19T13:10:10;15.20;;;3.50;;
66603;SDS011;53460;39.612;8.822;2023-09-19T13:12:39;12.90;;;3.55;;
66603;SDS011;53460;39.612;8.822;2023-09-19T13:15:11;11.25;;;3.35;;
66603;SDS011;53460;39.612;8.822;2023-09-19T13:17:46;18.08;;;3.42;;
66603;SDS011;53460;39.612;8.822;2023-09-19T13:20:25;15.00;;;3.25;;
66603;SDS011;53460;39.612;8.822;2023-09-19T13:22:53;17.58;;;4.05;;
66603;SDS011;53460;39.612;8.822;2023-09-19T13:25:35;17.10;;;4.07;;
66603;SDS011;53460;39.612;8.822;2023-09-19T13:28:01;14.63;;;3.55;;
66603;SDS011;53460;39.612;8.822;2023-09-19T13:30:29;16.90;;;4.13;;
66603;SDS011;53460;39.612;8.822;2023-09-19T13:33:09;29.75;;;4.38;;
66603;SDS011;53460;39.612;8.822;2023-09-19T13:35:35;20.42;;;3.45;;
66603;SDS011;53460;39.612;8.822;2023-09-19T13:38:03;15.48;;;3.22;;
66603;SDS011;53460;39.612;8.822;2023-09-19T13:40:29;14.38;;;3.20;;
66603;SDS011;53460;39.612;8.822;2023-09-19T13:43:00;21.13;;;3.17;;
66603;SDS011;53460;39.612;8.822;2023-09-19T13:45:26;15.80;;;3.45;;
66603;SDS011;53460;39.612;8.822;2023-09-19T13:47:52;14.93;;;3.30;;
66603;SDS011;53460;39.612;8.822;2023-09-19T13:50:18;10.55;;;3.00;;
66603;SDS011;53460;39.612;8.822;2023-09-19T13:52:49;11.45;;;2.72;;
66603;SDS011;53460;39.612;8.822;2023-09-19T13:55:16;11.23;;;3.17;;
66603;SDS011;53460;39.612;8.822;2023-09-19T13:57:45;16.40;;;3.55;;
66603;SDS011;53460;39.612;8.822;2023-09-19T14:00:11;15.75;;;3.55;;
66603;SDS011;53460;39.612;8.822;2023-09-19T14:02:39;10.88;;;2.80;;
66603;SDS011;53460;39.612;8.822;2023-09-19T14:05:05;12.43;;;3.28;;
66603;SDS011;53460;39.612;8.822;2023-09-19T14:07:32;14.93;;;3.15;;
66603;SDS011;53460;39.612;8.822;2023-09-19T14:09:57;9.32;;;2.70;;
66603;SDS011;53460;39.612;8.822;2023-09-19T14:12:22;10.02;;;2.88;;
66603;SDS011;53460;39.612;8.822;2023-09-19T14:14:48;10.25;;;2.70;;
66603;SDS011;53460;39.612;8.822;2023-09-19T14:17:16;14.35;;;2.70;;
66603;SDS011;53460;39.612;8.822;2023-09-19T14:19:41;12.70;;;2.90;;
66603;SDS011;53460;39.612;8.822;2023-09-19T14:22:09;10.38;;;2.85;;
66603;SDS011;53460;39.612;8.822;2023-09-19T14:24:35;14.80;;;3.13;;
66603;SDS011;53460;39.612;8.822;2023-09-19T14:27:01;10.55;;;3.25;;
66603;SDS011;53460;39.612;8.822;2023-09-19T14:29:29;12.73;;;3.13;;
66603;SDS011;53460;39.612;8.822;2023-09-19T14:31:54;11.30;;;2.45;;
66603;SDS011;53460;39.612;8.822;2023-09-19T14:34:22;18.35;;;3.30;;
66603;SDS011;53460;39.612;8.822;2023-09-19T14:36:47;33.40;;;3.58;;
66603;SDS011;53460;39.612;8.822;2023-09-19T14:39:14;36.80;;;4.07;;
66603;SDS011;53460;39.612;8.822;2023-09-19T14:41:39;15.57;;;3.55;;
66603;SDS011;53460;39.612;8.822;2023-09-19T14:44:05;9.18;;;3.60;;
66603;SDS011;53460;39.612;8.822;2023-09-19T14:46:30;10.00;;;2.80;;
66603;SDS011;53460;39.612;8.822;2023-09-19T14:48:56;10.48;;;2.40;;
66603;SDS011;53460;39.612;8.822;2023-09-19T14:51:24;11.32;;;2.60;;
66603;SDS011;53460;39.612;8.822;2023-09-19T14:53:50;8.70;;;2.90;;
66603;SDS011;53460;39.612;8.822;2023-09-19T14:56:15;11.68;;;3.13;;
66603;SDS011;53460;39.612;8.822;2023-09-19T14:58:43;12.63;;;3.00;;
66603;SDS011;53460;39.612;8.822;2023-09-19T15:01:10;12.38;;;2.75;;
66603;SDS011;53460;39.612;8.822;2023-09-19T15:03:36;8.85;;;2.55;;
66603;SDS011;53460;39.612;8.822;2023-09-19T15:06:04;7.63;;;2.58;;
66603;SDS011;53460;39.612;8.822;2023-09-19T15:08:30;9.60;;;2.53;;
66603;SDS011;53460;39.612;8.822;2023-09-19T15:10:56;9.40;;;2.85;;
66603;SDS011;53460;39.612;8.822;2023-09-19T15:13:24;10.50;;;3.10;;
66603;SDS011;53460;39.612;8.822;2023-09-19T15:15:58;8.93;;;2.20;;
66603;SDS011;53460;39.612;8.822;2023-09-19T15:18:23;9.57;;;2.38;;
66603;SDS011;53460;39.612;8.822;2023-09-19T15:20:49;12.20;;;2.78;;
66603;SDS011;53460;39.612;8.822;2023-09-19T15:23:14;10.50;;;2.22;;
66603;SDS011;53460;39.612;8.822;2023-09-19T15:25:47;11.57;;;2.80;;
66603;SDS011;53460;39.612;8.822;2023-09-19T15:28:12;7.35;;;2.28;;